createdAt,value
2018-07-31T00:02:19.419Z,18.58
2018-07-31T00:04:48.773Z,18.50
2018-07-31T00:07:18.115Z,18.51
2018-07-31T00:09:47.467Z,18.29
2018-07-31T00:12:16.821Z,18.53
2018-07-31T00:14:46.176Z,18.19
2018-07-31T00:17:15.531Z,18.67
2018-07-31T00:19:44.622Z,18.87
2018-07-31T00:22:13.730Z,18.62
2018-07-31T00:24:43.126Z,18.88
2018-07-31T00:27:12.232Z,18.58
2018-07-31T00:29:41.342Z,18.68
2018-07-31T00:32:10.711Z,18.47
2018-07-31T00:34:40.061Z,18.24
2018-07-31T00:37:09.415Z,18.16
2018-07-31T00:39:38.779Z,17.97
2018-07-31T00:42:08.551Z,17.95
2018-07-31T00:44:37.895Z,17.81
2018-07-31T00:47:07.259Z,17.91
2018-07-31T00:49:36.590Z,17.88
2018-07-31T00:52:05.943Z,17.84
2018-07-31T00:54:35.308Z,17.92
2018-07-31T00:57:04.668Z,17.95
2018-07-31T00:59:34.008Z,18.06
2018-07-31T01:02:03.367Z,18.05
2018-07-31T01:04:32.707Z,18.21
2018-07-31T01:07:02.067Z,17.59
2018-07-31T01:09:31.423Z,18.27
2018-07-31T01:12:00.766Z,18.19
2018-07-31T01:14:30.115Z,18.19
2018-07-31T01:16:59.475Z,18.10
2018-07-31T01:19:28.822Z,17.95
2018-07-31T01:21:58.171Z,17.89
2018-07-31T01:24:27.515Z,17.95
2018-07-31T01:26:56.867Z,17.85
2018-07-31T01:29:26.214Z,17.87
2018-07-31T01:31:55.564Z,17.81
2018-07-31T01:34:24.922Z,17.57
2018-07-31T01:36:54.273Z,17.49
2018-07-31T01:39:23.629Z,17.43
2018-07-31T01:41:52.966Z,17.29
2018-07-31T01:44:22.330Z,17.22
2018-07-31T01:46:51.701Z,17.30
2018-07-31T01:49:21.047Z,17.32
2018-07-31T01:51:50.391Z,17.29
2018-07-31T01:54:19.739Z,17.41
2018-07-31T01:56:49.088Z,17.37
2018-07-31T01:59:18.438Z,17.31
2018-07-31T02:01:47.807Z,17.25
2018-07-31T02:04:17.167Z,17.01
2018-07-31T02:06:46.259Z,16.56
2018-07-31T02:09:15.622Z,16.89
2018-07-31T02:11:44.970Z,16.84
2018-07-31T02:14:14.090Z,16.89
2018-07-31T02:16:43.514Z,16.87
2018-07-31T02:19:12.889Z,16.79
2018-07-31T02:21:42.253Z,16.72
2018-07-31T02:24:11.627Z,16.64
2018-07-31T02:26:41.074Z,16.72
2018-07-31T02:29:10.193Z,16.72
2018-07-31T02:31:39.572Z,16.72
2018-07-31T02:34:08.956Z,16.74
2018-07-31T02:36:38.319Z,16.54
2018-07-31T02:39:09.116Z,16.84
2018-07-31T02:41:38.230Z,16.87
2018-07-31T02:44:08.677Z,16.86
2018-07-31T02:46:38.045Z,16.97
2018-07-31T02:49:07.429Z,16.97
2018-07-31T02:51:36.559Z,17.00
2018-07-31T02:54:06.035Z,17.04
2018-07-31T02:56:35.156Z,17.17
2018-07-31T02:59:04.572Z,16.75
2018-07-31T03:01:33.940Z,16.60
2018-07-31T03:04:03.332Z,16.37
2018-07-31T03:06:32.531Z,16.44
2018-07-31T03:09:01.929Z,16.39
2018-07-31T03:11:31.058Z,16.30
2018-07-31T03:14:00.416Z,16.38
2018-07-31T03:16:29.775Z,15.76
2018-07-31T03:18:59.127Z,16.44
2018-07-31T03:21:28.242Z,16.73
2018-07-31T03:23:57.603Z,16.88
2018-07-31T03:26:26.984Z,16.81
2018-07-31T03:28:56.342Z,16.66
2018-07-31T03:31:25.705Z,16.53
2018-07-31T03:33:55.088Z,16.20
2018-07-31T03:36:24.468Z,16.09
2018-07-31T03:38:53.822Z,16.15
2018-07-31T03:41:22.935Z,15.90
2018-07-31T03:43:52.060Z,15.89
2018-07-31T03:46:21.423Z,15.82
2018-07-31T03:48:50.778Z,15.83
2018-07-31T03:51:20.138Z,15.99
2018-07-31T03:53:49.238Z,15.93
2018-07-31T03:56:18.626Z,15.99
2018-07-31T03:58:47.975Z,15.94
2018-07-31T04:01:17.349Z,15.95
2018-07-31T04:03:46.708Z,16.04
2018-07-31T04:06:16.152Z,15.97
2018-07-31T04:08:45.509Z,16.09
2018-07-31T04:11:14.916Z,16.12
2018-07-31T04:13:44.262Z,16.17
2018-07-31T04:16:13.652Z,16.32
2018-07-31T04:18:43.019Z,16.36
2018-07-31T04:21:12.398Z,16.24
2018-07-31T04:23:41.881Z,16.35
2018-07-31T04:26:11.247Z,16.37
2018-07-31T04:28:40.594Z,16.23
2018-07-31T04:31:09.960Z,16.18
2018-07-31T04:33:39.315Z,16.09
2018-07-31T04:36:08.857Z,16.18
2018-07-31T04:38:38.186Z,16.09
2018-07-31T04:41:07.758Z,16.23
2018-07-31T04:43:37.076Z,15.71
2018-07-31T04:46:06.732Z,16.48
2018-07-31T04:48:36.135Z,16.65
2018-07-31T04:51:05.507Z,16.75
2018-07-31T04:53:34.860Z,16.93
2018-07-31T04:56:04.258Z,17.78
2018-07-31T04:58:33.598Z,16.83
2018-07-31T05:01:02.955Z,17.30
2018-07-31T05:03:32.368Z,17.09
2018-07-31T05:06:01.715Z,18.05
2018-07-31T05:08:31.085Z,17.57
2018-07-31T05:11:00.243Z,17.61
2018-07-31T05:13:29.566Z,17.69
2018-07-31T05:15:58.930Z,17.77
2018-07-31T05:18:28.303Z,17.87
2018-07-31T05:20:57.694Z,17.90
2018-07-31T05:23:27.057Z,18.03
2018-07-31T05:25:56.503Z,17.43
2018-07-31T05:28:25.871Z,18.24
2018-07-31T05:30:55.228Z,18.23
2018-07-31T05:33:24.599Z,18.55
2018-07-31T05:35:53.708Z,18.64
2018-07-31T05:38:23.079Z,18.84
2018-07-31T05:40:52.422Z,19.54
2018-07-31T05:43:21.791Z,19.08
2018-07-31T05:45:50.897Z,19.21
2018-07-31T05:48:20.272Z,19.21
2018-07-31T05:50:49.630Z,19.31
2018-07-31T05:53:19.012Z,19.53
2018-07-31T05:55:48.379Z,19.63
2018-07-31T05:58:17.747Z,20.30
2018-07-31T06:00:47.111Z,19.79
2018-07-31T06:03:16.495Z,19.95
2018-07-31T06:05:45.880Z,19.99
2018-07-31T06:08:15.242Z,19.97
2018-07-31T06:10:44.598Z,20.02
2018-07-31T06:13:13.963Z,20.22
2018-07-31T06:15:43.533Z,20.29
2018-07-31T06:18:12.898Z,20.44
2018-07-31T06:20:42.019Z,20.57
2018-07-31T06:23:11.386Z,19.95
2018-07-31T06:25:40.757Z,21.30
2018-07-31T06:28:10.103Z,20.81
2018-07-31T06:30:39.468Z,20.97
2018-07-31T06:33:08.856Z,21.08
2018-07-31T06:35:38.211Z,21.12
2018-07-31T06:38:08.462Z,21.32
2018-07-31T06:40:37.815Z,21.42
2018-07-31T06:43:07.207Z,20.83
2018-07-31T06:45:36.583Z,21.59
2018-07-31T06:48:05.965Z,21.81
2018-07-31T06:50:35.977Z,21.95
2018-07-31T06:53:05.368Z,22.02
2018-07-31T06:55:34.723Z,22.09
2018-07-31T06:58:04.087Z,22.42
2018-07-31T07:00:33.474Z,22.49
2018-07-31T07:03:02.855Z,21.88
2018-07-31T07:05:31.966Z,22.62
2018-07-31T07:08:01.086Z,22.76
2018-07-31T07:10:30.469Z,22.83
2018-07-31T07:12:59.838Z,22.93
2018-07-31T07:15:29.235Z,23.07
2018-07-31T07:17:58.563Z,23.27
2018-07-31T07:20:27.687Z,23.65
2018-07-31T07:22:57.063Z,23.76
2018-07-31T07:25:26.422Z,24.06
2018-07-31T07:27:55.808Z,24.22
2018-07-31T07:30:25.136Z,24.54
2018-07-31T07:32:54.479Z,24.72
2018-07-31T07:35:23.851Z,24.86
2018-07-31T07:37:53.350Z,24.88
2018-07-31T07:40:22.722Z,24.89
2018-07-31T07:42:52.118Z,25.16
2018-07-31T07:45:21.491Z,25.15
2018-07-31T07:47:50.853Z,25.09
2018-07-31T07:50:20.222Z,24.78
2018-07-31T07:52:49.582Z,25.23
2018-07-31T07:55:18.694Z,25.64
2018-07-31T07:57:48.073Z,25.46
2018-07-31T08:00:17.177Z,25.60
2018-07-31T08:02:46.548Z,25.69
2018-07-31T08:05:15.907Z,25.32
2018-07-31T08:07:45.270Z,25.76
2018-07-31T08:10:14.655Z,26.20
2018-07-31T08:12:44.024Z,26.26
2018-07-31T08:15:13.399Z,26.41
2018-07-31T08:17:42.791Z,26.50
2018-07-31T08:20:12.144Z,26.65
2018-07-31T08:22:41.585Z,27.19
2018-07-31T08:25:10.891Z,26.96
2018-07-31T08:27:40.254Z,27.31
2018-07-31T08:30:09.656Z,27.01
2018-07-31T08:32:38.975Z,26.75
2018-07-31T08:35:08.103Z,27.19
2018-07-31T08:37:37.534Z,27.43
2018-07-31T08:40:07.164Z,27.59
2018-07-31T08:42:36.531Z,27.70
2018-07-31T08:45:06.123Z,27.44
2018-07-31T08:47:35.475Z,27.35
2018-07-31T08:50:05.386Z,27.62
2018-07-31T08:52:34.745Z,27.58
2018-07-31T08:55:04.160Z,27.59
2018-07-31T08:57:33.527Z,27.68
2018-07-31T09:00:02.919Z,27.12
2018-07-31T09:02:32.039Z,27.91
2018-07-31T09:05:01.435Z,28.15
2018-07-31T09:07:30.820Z,28.37
2018-07-31T09:09:59.935Z,28.35
2018-07-31T09:12:29.272Z,28.39
2018-07-31T09:14:58.598Z,28.31
2018-07-31T09:17:28.039Z,28.35
2018-07-31T09:19:57.304Z,28.55
2018-07-31T09:22:26.617Z,28.82
2018-07-31T09:24:55.698Z,28.96
2018-07-31T09:27:25.019Z,28.93
2018-07-31T09:29:54.339Z,29.22
2018-07-31T09:32:28.863Z,29.00
2018-07-31T09:34:58.195Z,29.19
2018-07-31T09:37:27.538Z,29.34
2018-07-31T09:39:56.611Z,28.80
2018-07-31T09:42:25.947Z,29.20
2018-07-31T09:44:55.275Z,29.14
2018-07-31T09:47:24.620Z,29.29
2018-07-31T09:49:53.961Z,29.65
2018-07-31T09:52:23.319Z,29.01
2018-07-31T09:54:52.692Z,29.30
2018-07-31T09:57:22.023Z,29.24
2018-07-31T09:59:51.369Z,29.52
2018-07-31T10:02:20.692Z,29.35
2018-07-31T10:04:50.008Z,29.67
2018-07-31T10:07:19.339Z,29.61
2018-07-31T10:09:48.667Z,29.92
2018-07-31T10:12:18.014Z,29.85
2018-07-31T10:14:47.335Z,29.84
2018-07-31T10:17:16.651Z,30.85
2018-07-31T10:19:45.988Z,29.61
2018-07-31T10:22:15.336Z,29.57
2018-07-31T10:24:44.412Z,29.70
2018-07-31T10:27:13.739Z,29.86
2018-07-31T10:29:42.810Z,30.24
2018-07-31T10:32:12.138Z,30.03
2018-07-31T10:34:41.473Z,30.08
2018-07-31T10:37:10.790Z,30.14
2018-07-31T10:39:40.111Z,30.04
2018-07-31T10:42:09.442Z,30.03
2018-07-31T10:44:38.759Z,29.66
2018-07-31T10:47:08.102Z,29.71
2018-07-31T10:49:37.426Z,29.79
2018-07-31T10:52:06.505Z,29.78
2018-07-31T10:54:35.826Z,29.91
2018-07-31T10:57:04.919Z,30.37
2018-07-31T10:59:34.361Z,29.77
2018-07-31T11:02:03.703Z,30.03
2018-07-31T11:04:33.035Z,30.33
2018-07-31T11:07:02.173Z,30.68
2018-07-31T11:09:31.559Z,30.40
2018-07-31T11:12:00.993Z,30.29
2018-07-31T11:14:30.387Z,30.30
2018-07-31T11:16:59.744Z,30.80
2018-07-31T11:19:29.123Z,30.70
2018-07-31T11:21:58.501Z,30.43
2018-07-31T11:24:27.878Z,30.43
2018-07-31T11:26:57.300Z,30.49
2018-07-31T11:29:26.719Z,30.87
2018-07-31T11:31:56.091Z,31.19
2018-07-31T11:34:25.486Z,31.10
2018-07-31T11:36:54.855Z,31.09
2018-07-31T11:39:23.969Z,31.30
2018-07-31T11:41:53.343Z,31.58
2018-07-31T11:44:22.466Z,31.66
2018-07-31T11:46:51.841Z,31.68
2018-07-31T11:49:21.237Z,31.00
2018-07-31T11:51:50.596Z,32.11
2018-07-31T11:54:19.964Z,32.43
2018-07-31T11:56:49.345Z,33.56
2018-07-31T11:59:18.732Z,32.83
2018-07-31T12:01:48.129Z,32.86
2018-07-31T12:04:17.543Z,33.94
2018-07-31T12:06:46.852Z,34.04
2018-07-31T12:09:15.994Z,34.55
2018-07-31T12:11:45.591Z,34.09
2018-07-31T12:14:15.299Z,33.45
2018-07-31T12:16:44.679Z,33.03
2018-07-31T12:19:14.059Z,32.86
2018-07-31T12:21:43.187Z,32.43
2018-07-31T12:24:12.566Z,32.34
2018-07-31T12:26:41.956Z,32.43
2018-07-31T12:29:11.364Z,32.04
2018-07-31T12:31:40.477Z,32.31
2018-07-31T12:34:09.614Z,32.71
2018-07-31T12:36:39.040Z,32.67
2018-07-31T12:39:11.560Z,33.02
2018-07-31T12:41:40.964Z,33.51
2018-07-31T12:44:10.387Z,32.87
2018-07-31T12:46:39.468Z,33.07
2018-07-31T12:49:08.857Z,32.87
2018-07-31T12:51:38.225Z,33.76
2018-07-31T12:54:08.414Z,33.31
2018-07-31T12:56:37.805Z,34.52
2018-07-31T12:59:07.251Z,33.87
2018-07-31T13:01:36.672Z,33.39
2018-07-31T13:04:06.028Z,34.11
2018-07-31T13:06:35.471Z,34.75
2018-07-31T13:09:06.937Z,34.23
2018-07-31T13:11:36.463Z,34.76
2018-07-31T13:14:05.884Z,35.20
2018-07-31T13:16:35.258Z,35.62
2018-07-31T13:19:04.653Z,36.16
2018-07-31T13:21:34.019Z,36.34
2018-07-31T13:24:03.432Z,36.24
2018-07-31T13:26:32.819Z,36.97
2018-07-31T13:29:02.225Z,36.49
2018-07-31T13:31:31.577Z,36.87
2018-07-31T13:34:00.948Z,37.18
2018-07-31T13:36:30.116Z,37.47
2018-07-31T13:38:59.476Z,37.15
2018-07-31T13:41:28.859Z,37.78
2018-07-31T13:43:58.339Z,37.32
2018-07-31T13:46:27.387Z,37.20
2018-07-31T13:48:56.758Z,36.85
2018-07-31T13:51:26.111Z,37.78
2018-07-31T13:53:55.485Z,37.31
2018-07-31T13:56:24.871Z,37.48
2018-07-31T13:58:54.479Z,36.71
2018-07-31T14:01:23.858Z,35.44
2018-07-31T14:03:52.978Z,36.80
2018-07-31T14:06:22.326Z,37.24
2018-07-31T14:08:51.690Z,37.55
2018-07-31T14:11:21.077Z,37.20
2018-07-31T14:13:50.797Z,37.60
2018-07-31T14:16:19.884Z,37.28
2018-07-31T14:18:49.244Z,38.19
2018-07-31T14:21:18.608Z,38.37
2018-07-31T14:23:47.973Z,38.73
2018-07-31T14:26:17.085Z,38.81
2018-07-31T14:28:46.486Z,39.27
2018-07-31T14:31:15.863Z,38.62
2018-07-31T14:33:44.976Z,39.38
2018-07-31T14:36:14.386Z,39.30
2018-07-31T14:38:43.782Z,38.61
2018-07-31T14:41:12.962Z,39.07
2018-07-31T14:43:42.079Z,39.67
2018-07-31T14:46:11.492Z,39.32
2018-07-31T14:48:40.846Z,39.32
2018-07-31T14:51:10.244Z,39.62
2018-07-31T14:53:39.614Z,39.97
2018-07-31T14:56:08.970Z,39.78
2018-07-31T14:58:38.099Z,39.15
2018-07-31T15:01:07.583Z,38.61
2018-07-31T15:03:36.948Z,39.74
2018-07-31T15:06:06.330Z,38.44
2018-07-31T15:08:39.698Z,38.07
2018-07-31T15:11:10.600Z,37.74
2018-07-31T15:13:40.452Z,38.45
2018-07-31T15:16:09.850Z,38.55
2018-07-31T15:18:39.226Z,38.87
2018-07-31T15:21:08.379Z,38.17
2018-07-31T15:23:37.737Z,38.07
2018-07-31T15:26:07.207Z,38.89
2018-07-31T15:28:36.587Z,37.83
2018-07-31T15:31:05.943Z,38.33
2018-07-31T15:33:35.302Z,38.03
2018-07-31T15:36:04.668Z,37.46
2018-07-31T15:38:34.039Z,36.80
2018-07-31T15:41:03.164Z,37.09
2018-07-31T15:43:32.541Z,37.81
2018-07-31T15:46:01.896Z,37.57
2018-07-31T15:48:31.263Z,37.69
2018-07-31T15:51:00.651Z,38.18
2018-07-31T15:53:30.042Z,38.49
2018-07-31T15:55:59.407Z,38.01
2018-07-31T15:58:28.774Z,36.95
2018-07-31T16:00:58.157Z,36.34
2018-07-31T16:03:27.534Z,36.14
2018-07-31T16:05:56.684Z,35.36
2018-07-31T16:08:26.052Z,35.26
2018-07-31T16:10:55.410Z,34.88
2018-07-31T16:13:24.799Z,34.68
2018-07-31T16:15:54.170Z,34.48
2018-07-31T16:18:23.546Z,34.35
2018-07-31T16:20:52.671Z,34.28
2018-07-31T16:23:22.136Z,34.08
2018-07-31T16:25:51.432Z,34.04
2018-07-31T16:28:20.799Z,33.85
2018-07-31T16:30:50.174Z,34.05
2018-07-31T16:33:19.552Z,33.97
2018-07-31T16:35:48.669Z,33.87
2018-07-31T16:38:18.046Z,33.91
2018-07-31T16:40:47.157Z,33.96
2018-07-31T16:43:16.539Z,34.30
2018-07-31T16:45:45.663Z,34.56
2018-07-31T16:48:15.032Z,34.98
2018-07-31T16:50:44.412Z,34.89
2018-07-31T16:53:13.778Z,35.15
2018-07-31T16:55:43.150Z,35.38
2018-07-31T16:58:12.515Z,35.25
2018-07-31T17:00:41.896Z,35.35
2018-07-31T17:03:11.263Z,35.34
2018-07-31T17:05:40.652Z,35.58
2018-07-31T17:08:10.027Z,35.41
2018-07-31T17:10:39.421Z,35.36
2018-07-31T17:13:08.803Z,35.38
2018-07-31T17:15:38.172Z,35.54
2018-07-31T17:18:09.256Z,35.63
2018-07-31T17:20:38.628Z,35.79
2018-07-31T17:23:08.003Z,35.58
2018-07-31T17:25:37.389Z,35.33
2018-07-31T17:28:06.757Z,35.41
2018-07-31T17:30:36.126Z,34.89
2018-07-31T17:33:05.502Z,34.78
2018-07-31T17:35:34.874Z,34.74
2018-07-31T17:38:04.251Z,34.88
2018-07-31T17:40:34.475Z,34.67
2018-07-31T17:43:03.871Z,34.51
2018-07-31T17:45:33.240Z,34.38
2018-07-31T17:48:02.658Z,34.20
2018-07-31T17:50:31.752Z,33.97
2018-07-31T17:53:01.138Z,33.78
2018-07-31T17:55:30.276Z,33.66
2018-07-31T17:57:59.628Z,33.61
2018-07-31T18:00:29.093Z,33.55
2018-07-31T18:02:58.454Z,33.25
2018-07-31T18:05:27.826Z,33.25
2018-07-31T18:07:57.196Z,33.80
2018-07-31T18:10:26.574Z,33.05
2018-07-31T18:12:55.951Z,33.09
2018-07-31T18:15:25.075Z,32.26
2018-07-31T18:17:54.666Z,32.79
2018-07-31T18:20:24.044Z,32.76
2018-07-31T18:22:53.218Z,32.71
2018-07-31T18:25:22.595Z,32.68
2018-07-31T18:27:51.983Z,32.55
2018-07-31T18:30:21.360Z,32.35
2018-07-31T18:32:50.731Z,32.19
2018-07-31T18:35:20.109Z,32.07
2018-07-31T18:37:49.484Z,32.03
2018-07-31T18:40:18.863Z,31.33
2018-07-31T18:42:48.242Z,31.87
2018-07-31T18:45:17.599Z,31.72
2018-07-31T18:47:46.991Z,31.66
2018-07-31T18:50:16.372Z,31.55
2018-07-31T18:52:45.752Z,31.51
2018-07-31T18:55:14.888Z,31.33
2018-07-31T18:57:44.259Z,31.34
2018-07-31T19:00:13.378Z,31.18
2018-07-31T19:02:42.773Z,31.19
2018-07-31T19:05:12.144Z,31.10
2018-07-31T19:07:41.518Z,30.93
2018-07-31T19:10:10.893Z,30.86
2018-07-31T19:12:40.378Z,30.70
2018-07-31T19:15:09.783Z,30.49
2018-07-31T19:17:39.142Z,30.27
2018-07-31T19:20:09.268Z,30.08
2018-07-31T19:22:38.671Z,29.73
2018-07-31T19:25:08.058Z,29.08
2018-07-31T19:27:37.516Z,28.92
2018-07-31T19:30:07.239Z,28.42
2018-07-31T19:32:36.625Z,28.10
2018-07-31T19:35:06.010Z,27.69
2018-07-31T19:37:35.131Z,27.44
2018-07-31T19:40:04.544Z,27.27
2018-07-31T19:42:33.914Z,27.05
2018-07-31T19:45:03.452Z,26.90
2018-07-31T19:47:32.801Z,26.79
2018-07-31T19:50:02.174Z,26.40
2018-07-31T19:52:31.865Z,26.53
2018-07-31T19:55:01.253Z,26.40
2018-07-31T19:57:30.620Z,26.46
2018-07-31T19:59:59.974Z,25.13
2018-07-31T20:02:29.349Z,26.60
2018-07-31T20:04:58.723Z,26.60
2018-07-31T20:07:28.108Z,26.23
2018-07-31T20:09:57.476Z,26.01
2018-07-31T20:12:26.855Z,25.83
2018-07-31T20:14:56.230Z,25.64
2018-07-31T20:17:25.595Z,25.47
2018-07-31T20:19:54.957Z,25.32
2018-07-31T20:22:24.332Z,25.18
2018-07-31T20:24:53.678Z,24.99
2018-07-31T20:27:23.094Z,25.08
2018-07-31T20:29:52.431Z,25.14
2018-07-31T20:32:21.815Z,25.16
2018-07-31T20:34:51.253Z,25.58
2018-07-31T20:37:20.567Z,25.65
2018-07-31T20:39:49.931Z,25.70
2018-07-31T20:42:19.312Z,25.65
2018-07-31T20:44:48.701Z,25.38
2018-07-31T20:47:18.065Z,25.16
2018-07-31T20:49:47.452Z,24.91
2018-07-31T20:52:16.840Z,25.44
2018-07-31T20:54:46.176Z,24.68
2018-07-31T20:57:15.571Z,24.76
2018-07-31T20:59:44.727Z,24.78
2018-07-31T21:02:14.287Z,24.65
2018-07-31T21:04:43.705Z,24.76
2018-07-31T21:07:13.074Z,25.19
2018-07-31T21:09:42.183Z,25.13
2018-07-31T21:12:11.575Z,24.90
2018-07-31T21:14:40.694Z,25.38
2018-07-31T21:17:16.311Z,25.53
2018-07-31T21:19:45.553Z,25.37
2018-07-31T21:22:14.918Z,25.21
2018-07-31T21:24:44.038Z,25.01
2018-07-31T21:27:13.412Z,24.82
2018-07-31T21:29:42.800Z,24.48
2018-07-31T21:32:12.155Z,24.17
2018-07-31T21:34:41.506Z,24.12
2018-07-31T21:37:10.852Z,24.55
2018-07-31T21:39:40.204Z,23.71
2018-07-31T21:42:09.550Z,23.36
2018-07-31T21:44:38.915Z,23.36
2018-07-31T21:47:08.095Z,23.40
2018-07-31T21:49:37.448Z,23.19
2018-07-31T21:52:06.823Z,23.57
2018-07-31T21:54:35.932Z,23.54
2018-07-31T21:57:05.298Z,23.58
2018-07-31T21:59:34.675Z,23.42
2018-07-31T22:02:04.033Z,22.85
2018-07-31T22:04:33.391Z,23.51
2018-07-31T22:07:02.748Z,23.49
2018-07-31T22:09:36.167Z,23.39
2018-07-31T22:12:05.540Z,23.27
2018-07-31T22:14:34.892Z,23.06
2018-07-31T22:17:04.255Z,23.07
2018-07-31T22:19:33.623Z,23.06
2018-07-31T22:22:02.837Z,22.54
2018-07-31T22:24:32.468Z,23.91
2018-07-31T22:27:01.818Z,23.36
2018-07-31T22:29:31.184Z,23.79
2018-07-31T22:32:00.553Z,22.84
2018-07-31T22:34:29.890Z,23.01
2018-07-31T22:36:59.251Z,23.05
2018-07-31T22:39:28.600Z,22.89
2018-07-31T22:41:57.968Z,22.90
2018-07-31T22:44:27.318Z,22.99
2018-07-31T22:46:56.675Z,22.93
2018-07-31T22:49:26.015Z,23.18
2018-07-31T22:51:55.363Z,23.18
2018-07-31T22:54:24.804Z,23.29
2018-07-31T22:56:54.118Z,23.32
2018-07-31T22:59:23.467Z,23.25
2018-07-31T23:01:52.827Z,23.47
2018-07-31T23:04:22.177Z,23.45
2018-07-31T23:06:51.539Z,23.74
2018-07-31T23:09:20.886Z,23.73
2018-07-31T23:11:50.254Z,23.71
2018-07-31T23:14:19.350Z,22.91
2018-07-31T23:16:48.703Z,23.47
2018-07-31T23:19:18.056Z,23.42
2018-07-31T23:21:47.414Z,23.28
2018-07-31T23:24:16.796Z,23.27
2018-07-31T23:26:46.168Z,23.31
2018-07-31T23:29:15.513Z,23.44
2018-07-31T23:31:44.871Z,23.39
2018-07-31T23:34:14.223Z,23.35
2018-07-31T23:36:43.574Z,23.22
2018-07-31T23:39:12.913Z,23.18
2018-07-31T23:41:42.280Z,23.07
2018-07-31T23:44:11.623Z,22.87
2018-07-31T23:46:40.972Z,22.72
2018-07-31T23:49:10.321Z,22.83
2018-07-31T23:51:39.687Z,22.78
2018-07-31T23:54:09.036Z,22.83
2018-07-31T23:56:38.423Z,22.98
2018-07-31T23:59:07.789Z,23.05
